Time;durP1;ratioP1;P1;durP2;ratioP2;P2;SDS_P1;SDS_P2;PMS_P1;PMS_P2;Temp;Humidity;BMP_temperature;BMP_pressure;BME280_temperature;BME280_humidity;BME280_pressure;Samples;Min_cycle;Max_cycle;Signal;HPM_P1;HPM_P2
2023/08/19 00:01:25;;;;;;;3.57;2.43;;;;;;;;;;5052815;28;20886;-54
2023/08/19 00:03:54;;;;;;;4.60;2.80;;;;;;;;;;5052165;28;20460;-53
2023/08/19 00:06:34;;;;;;;3.77;3.40;;;;;;;;;;5051996;28;21016;-53
2023/08/19 00:09:03;;;;;;;5.83;3.30;;;;;;;;;;5033164;28;20442;-53
2023/08/19 00:11:31;;;;;;;3.60;2.87;;;;;;;;;;5032913;28;20449;-53
2023/08/19 00:13:58;;;;;;;4.47;2.70;;;;;;;;;;5039726;28;20465;-55
2023/08/19 00:16:27;;;;;;;5.43;2.50;;;;;;;;;;5052318;28;20832;-54
2023/08/19 00:18:54;;;;;;;4.07;2.40;;;;;;;;;;5052614;28;20472;-53
2023/08/19 00:21:21;;;;;;;6.70;2.50;;;;;;;;;;5052299;28;20452;-52
2023/08/19 00:23:49;;;;;;;4.40;3.00;;;;;;;;;;5051837;28;20500;-56
2023/08/19 00:26:16;;;;;;;7.37;3.10;;;;;;;;;;5052823;28;20860;-54
2023/08/19 00:28:44;;;;;;;5.60;3.70;;;;;;;;;;5039876;28;21000;-55
2023/08/19 00:31:11;;;;;;;9.93;3.13;;;;;;;;;;5032398;28;20474;-55
2023/08/19 00:33:40;;;;;;;5.00;2.90;;;;;;;;;;5050791;28;20527;-55
2023/08/19 00:36:07;;;;;;;4.50;2.90;;;;;;;;;;5051414;28;20539;-55
2023/08/19 00:38:34;;;;;;;4.60;3.00;;;;;;;;;;5051285;28;20442;-53
2023/08/19 00:41:03;;;;;;;4.73;2.50;;;;;;;;;;5052578;28;20477;-55
2023/08/19 00:43:31;;;;;;;4.70;2.60;;;;;;;;;;5051570;28;20468;-55
2023/08/19 00:45:58;;;;;;;4.97;2.63;;;;;;;;;;5051125;28;20444;-55
2023/08/19 00:48:26;;;;;;;3.30;2.67;;;;;;;;;;5052078;28;20492;-56
2023/08/19 00:50:57;;;;;;;4.63;2.77;;;;;;;;;;5051783;28;20975;-56
2023/08/19 00:53:24;;;;;;;3.80;2.73;;;;;;;;;;5051342;28;20478;-56
2023/08/19 00:55:51;;;;;;;7.53;2.90;;;;;;;;;;5051973;28;20509;-53
2023/08/19 00:58:20;;;;;;;4.97;3.27;;;;;;;;;;5051645;28;20519;-53
2023/08/19 01:00:48;;;;;;;6.80;3.00;;;;;;;;;;5051685;28;20437;-53
2023/08/19 01:03:15;;;;;;;6.37;2.97;;;;;;;;;;5051610;28;20480;-53
2023/08/19 01:05:48;;;;;;;5.23;2.97;;;;;;;;;;5051140;28;20492;-54
2023/08/19 01:08:19;;;;;;;5.20;3.17;;;;;;;;;;5051329;28;20441;-53
2023/08/19 01:10:50;;;;;;;5.73;3.93;;;;;;;;;;5051639;28;20441;-55
2023/08/19 01:13:19;;;;;;;14.40;3.60;;;;;;;;;;5051392;28;20461;-54
2023/08/19 01:15:50;;;;;;;6.97;2.90;;;;;;;;;;5051152;28;20574;-53
2023/08/19 01:18:18;;;;;;;4.50;2.80;;;;;;;;;;5051245;28;20847;-55
2023/08/19 01:20:46;;;;;;;4.93;3.10;;;;;;;;;;5050823;28;20442;-54
2023/08/19 01:23:15;;;;;;;5.00;3.27;;;;;;;;;;5050362;28;21102;-53
2023/08/19 01:25:44;;;;;;;3.70;3.00;;;;;;;;;;5051371;28;20524;-54
2023/08/19 01:28:13;;;;;;;3.77;2.70;;;;;;;;;;5050987;28;20963;-55
2023/08/19 01:30:41;;;;;;;3.67;2.80;;;;;;;;;;5035549;28;20528;-54
2023/08/19 01:33:08;;;;;;;4.70;3.00;;;;;;;;;;5050702;28;20462;-53
2023/08/19 01:35:38;;;;;;;4.50;2.90;;;;;;;;;;5050539;28;20526;-54
2023/08/19 01:38:09;;;;;;;4.10;3.13;;;;;;;;;;5050723;28;20519;-53
2023/08/19 01:40:37;;;;;;;3.90;2.77;;;;;;;;;;5042408;28;20457;-54
2023/08/19 01:43:08;;;;;;;4.90;3.27;;;;;;;;;;5030625;28;20458;-56
2023/08/19 01:45:35;;;;;;;6.53;2.73;;;;;;;;;;5043890;28;21007;-53
2023/08/19 01:48:03;;;;;;;4.67;3.10;;;;;;;;;;5051094;28;20963;-55
2023/08/19 01:50:30;;;;;;;3.47;3.00;;;;;;;;;;5051075;28;20441;-55
2023/08/19 01:52:57;;;;;;;6.50;2.87;;;;;;;;;;5050391;28;20465;-54
2023/08/19 01:55:25;;;;;;;4.20;3.20;;;;;;;;;;5050340;28;20469;-54
2023/08/19 01:57:52;;;;;;;6.13;3.30;;;;;;;;;;5050154;28;20535;-54
2023/08/19 02:00:20;;;;;;;4.60;3.00;;;;;;;;;;5050510;28;20795;-56
2023/08/19 02:02:48;;;;;;;4.97;2.90;;;;;;;;;;5050045;28;20780;-53
2023/08/19 02:05:15;;;;;;;5.50;2.77;;;;;;;;;;5050881;28;20469;-53
2023/08/19 02:07:43;;;;;;;5.40;3.00;;;;;;;;;;5050735;28;20445;-53
2023/08/19 02:10:11;;;;;;;7.63;3.20;;;;;;;;;;5049916;28;20528;-53
2023/08/19 02:12:38;;;;;;;5.17;3.23;;;;;;;;;;5050705;28;20461;-53
2023/08/19 02:15:06;;;;;;;4.10;3.03;;;;;;;;;;5050629;28;20469;-55
2023/08/19 02:17:35;;;;;;;5.87;3.00;;;;;;;;;;5050688;28;20438;-54
2023/08/19 02:20:03;;;;;;;12.03;3.17;;;;;;;;;;5050269;28;20471;-53
2023/08/19 02:22:30;;;;;;;4.10;2.40;;;;;;;;;;5049544;28;20473;-53
2023/08/19 02:24:57;;;;;;;5.07;2.80;;;;;;;;;;5050359;28;20515;-54
2023/08/19 02:27:25;;;;;;;6.70;3.00;;;;;;;;;;5050368;28;20485;-54
2023/08/19 02:29:53;;;;;;;5.70;3.43;;;;;;;;;;5050197;28;20474;-55
2023/08/19 02:32:21;;;;;;;4.03;2.60;;;;;;;;;;5106259;22;20629;-56
2023/08/19 02:34:49;;;;;;;5.90;3.33;;;;;;;;;;5056293;28;20569;-57
2023/08/19 02:37:16;;;;;;;5.10;2.90;;;;;;;;;;5050142;28;20475;-57
2023/08/19 02:39:44;;;;;;;6.67;3.70;;;;;;;;;;5050970;28;20456;-56
2023/08/19 02:42:15;;;;;;;3.87;2.80;;;;;;;;;;5065905;28;20444;-58
2023/08/19 02:44:42;;;;;;;4.53;3.13;;;;;;;;;;5050545;28;20438;-56
2023/08/19 02:47:09;;;;;;;8.73;3.67;;;;;;;;;;5050716;28;20901;-56
2023/08/19 02:49:37;;;;;;;7.33;3.50;;;;;;;;;;5050416;28;20524;-56
2023/08/19 02:52:06;;;;;;;6.00;3.03;;;;;;;;;;5049943;28;20532;-57
2023/08/19 02:54:34;;;;;;;6.87;3.50;;;;;;;;;;5050287;28;20482;-57
2023/08/19 02:57:01;;;;;;;4.40;3.50;;;;;;;;;;5049678;28;20506;-56
2023/08/19 02:59:28;;;;;;;5.27;2.90;;;;;;;;;;5049372;28;20477;-57
2023/08/19 03:01:55;;;;;;;4.70;2.90;;;;;;;;;;5049638;28;20438;-56
2023/08/19 03:04:23;;;;;;;5.80;3.07;;;;;;;;;;5049593;28;20554;-56
2023/08/19 03:06:50;;;;;;;5.30;3.20;;;;;;;;;;5049833;28;20546;-57
2023/08/19 03:09:19;;;;;;;3.70;3.20;;;;;;;;;;5053760;28;20437;-56
2023/08/19 03:11:46;;;;;;;8.33;3.20;;;;;;;;;;5053249;28;20536;-58
2023/08/19 03:14:13;;;;;;;7.07;3.73;;;;;;;;;;5053514;28;20461;-56
2023/08/19 03:16:40;;;;;;;3.93;2.60;;;;;;;;;;5053513;28;20472;-57
2023/08/19 03:19:08;;;;;;;4.00;3.10;;;;;;;;;;5033921;28;20446;-56
2023/08/19 03:21:36;;;;;;;3.80;3.00;;;;;;;;;;5033920;28;20442;-57
2023/08/19 03:24:04;;;;;;;5.80;3.27;;;;;;;;;;5032876;28;20462;-56
2023/08/19 03:26:33;;;;;;;4.50;2.70;;;;;;;;;;5045470;28;21022;-57
2023/08/19 03:29:00;;;;;;;3.00;2.40;;;;;;;;;;5052986;28;20449;-58
2023/08/19 03:31:27;;;;;;;3.93;2.83;;;;;;;;;;5050958;28;20441;-58
2023/08/19 03:33:55;;;;;;;7.23;3.07;;;;;;;;;;5053006;28;21041;-56
2023/08/19 03:36:22;;;;;;;4.70;3.50;;;;;;;;;;5052820;28;20472;-56
2023/08/19 03:38:49;;;;;;;5.40;3.70;;;;;;;;;;5051371;28;21041;-58
2023/08/19 03:41:16;;;;;;;5.67;3.43;;;;;;;;;;5051094;28;21011;-57
2023/08/19 03:43:45;;;;;;;5.53;3.00;;;;;;;;;;5051407;28;20519;-57
2023/08/19 03:46:12;;;;;;;5.70;3.40;;;;;;;;;;5051954;28;20760;-56
2023/08/19 03:48:39;;;;;;;4.73;2.93;;;;;;;;;;5051557;28;20476;-58
2023/08/19 03:51:07;;;;;;;5.30;3.20;;;;;;;;;;5051360;28;20445;-57
2023/08/19 03:53:34;;;;;;;4.53;3.40;;;;;;;;;;5052240;28;20469;-58
2023/08/19 03:56:01;;;;;;;5.50;3.33;;;;;;;;;;5053196;28;20589;-56
2023/08/19 03:58:28;;;;;;;6.10;3.13;;;;;;;;;;5052639;28;20453;-57
2023/08/19 04:01:04;;;;;;;6.33;3.10;;;;;;;;;;5052975;28;20926;-58
2023/08/19 04:03:31;;;;;;;4.33;2.67;;;;;;;;;;5052359;28;20493;-57
2023/08/19 04:05:58;;;;;;;4.10;2.60;;;;;;;;;;5052655;28;20469;-57
2023/08/19 04:08:26;;;;;;;5.50;3.10;;;;;;;;;;5052450;28;20441;-56
2023/08/19 04:10:53;;;;;;;5.80;3.30;;;;;;;;;;5052607;28;20535;-57
2023/08/19 04:13:20;;;;;;;4.20;2.83;;;;;;;;;;5052406;28;20461;-57
2023/08/19 04:15:47;;;;;;;3.80;2.87;;;;;;;;;;5052656;28;20551;-56
2023/08/19 04:18:16;;;;;;;4.03;3.10;;;;;;;;;;5052548;28;20503;-56
2023/08/19 04:20:43;;;;;;;3.33;2.60;;;;;;;;;;5051156;28;20501;-58
2023/08/19 04:23:11;;;;;;;4.13;2.77;;;;;;;;;;5051818;28;20498;-57
2023/08/19 04:25:39;;;;;;;5.47;3.10;;;;;;;;;;5052699;28;20490;-56
2023/08/19 04:28:06;;;;;;;4.50;3.03;;;;;;;;;;5051686;28;21213;-57
2023/08/19 04:30:34;;;;;;;4.40;3.80;;;;;;;;;;5052233;28;20520;-57
2023/08/19 04:33:01;;;;;;;4.73;3.40;;;;;;;;;;5052362;28;20971;-57
2023/08/19 04:35:30;;;;;;;4.60;3.33;;;;;;;;;;5052366;28;20499;-58
2023/08/19 04:37:57;;;;;;;3.90;2.90;;;;;;;;;;5052288;28;20792;-57
2023/08/19 04:40:24;;;;;;;3.80;2.90;;;;;;;;;;5051583;28;20481;-56
2023/08/19 04:42:51;;;;;;;7.93;3.23;;;;;;;;;;5051117;28;20461;-56
2023/08/19 04:45:19;;;;;;;7.40;3.60;;;;;;;;;;5052388;28;20457;-56
2023/08/19 04:47:46;;;;;;;5.67;3.60;;;;;;;;;;5052025;28;20449;-56
2023/08/19 04:50:13;;;;;;;6.90;3.27;;;;;;;;;;5051997;28;20437;-54
2023/08/19 04:52:42;;;;;;;5.30;4.80;;;;;;;;;;5051462;28;20546;-57
2023/08/19 04:55:10;;;;;;;4.20;3.10;;;;;;;;;;5052034;28;21028;-56
2023/08/19 04:57:37;;;;;;;5.73;3.60;;;;;;;;;;5051798;28;20441;-57
2023/08/19 05:00:05;;;;;;;7.10;3.93;;;;;;;;;;5052264;28;20519;-57
2023/08/19 05:02:32;;;;;;;5.90;3.13;;;;;;;;;;5051552;28;20458;-57
2023/08/19 05:04:59;;;;;;;5.77;3.43;;;;;;;;;;5051589;28;20437;-58
2023/08/19 05:07:27;;;;;;;6.37;3.90;;;;;;;;;;5051608;28;20438;-57
2023/08/19 05:09:55;;;;;;;3.97;2.73;;;;;;;;;;5051309;28;20493;-56
2023/08/19 05:12:23;;;;;;;5.07;3.50;;;;;;;;;;5051166;28;20493;-56
2023/08/19 05:14:51;;;;;;;9.90;3.77;;;;;;;;;;5051081;28;20506;-56
2023/08/19 05:17:18;;;;;;;4.37;3.30;;;;;;;;;;5051895;28;20551;-56
2023/08/19 05:19:46;;;;;;;5.90;3.80;;;;;;;;;;5050675;28;20873;-57
2023/08/19 05:22:13;;;;;;;5.40;3.30;;;;;;;;;;5049544;28;21049;-57
2023/08/19 05:24:41;;;;;;;3.80;3.17;;;;;;;;;;5050812;28;20469;-57
2023/08/19 05:27:09;;;;;;;6.10;3.40;;;;;;;;;;5051709;28;20449;-56
2023/08/19 05:29:37;;;;;;;7.60;4.20;;;;;;;;;;5051664;28;20483;-57
2023/08/19 05:32:04;;;;;;;7.57;3.80;;;;;;;;;;5050263;28;20544;-57
2023/08/19 05:34:33;;;;;;;5.20;3.60;;;;;;;;;;5051316;28;20506;-56
2023/08/19 05:37:00;;;;;;;5.30;3.27;;;;;;;;;;5050388;28;20528;-57
2023/08/19 05:39:28;;;;;;;4.83;3.30;;;;;;;;;;5050667;28;20816;-58
2023/08/19 05:41:55;;;;;;;4.37;3.10;;;;;;;;;;5051057;28;20473;-57
2023/08/19 05:44:23;;;;;;;4.63;3.10;;;;;;;;;;5050294;28;20562;-56
2023/08/19 05:46:51;;;;;;;9.97;3.60;;;;;;;;;;5051222;28;20499;-56
2023/08/19 05:49:18;;;;;;;4.37;3.13;;;;;;;;;;5051137;28;20920;-57
2023/08/19 05:51:45;;;;;;;5.00;3.60;;;;;;;;;;5049675;28;20520;-56
2023/08/19 05:54:13;;;;;;;8.37;3.97;;;;;;;;;;5049961;28;20453;-56
2023/08/19 05:56:40;;;;;;;4.50;3.60;;;;;;;;;;5049186;28;20465;-56
2023/08/19 05:59:07;;;;;;;6.67;3.27;;;;;;;;;;5049636;28;20503;-57
2023/08/19 06:01:36;;;;;;;6.30;3.77;;;;;;;;;;5047980;28;20793;-57
2023/08/19 06:04:03;;;;;;;5.23;3.37;;;;;;;;;;5048384;28;20469;-57
2023/08/19 06:06:30;;;;;;;7.27;4.50;;;;;;;;;;5050372;28;20515;-57
2023/08/19 06:08:58;;;;;;;5.53;3.67;;;;;;;;;;5048051;28;20524;-57
2023/08/19 06:11:25;;;;;;;10.70;7.83;;;;;;;;;;5049650;28;20483;-57
2023/08/19 06:13:52;;;;;;;6.07;3.60;;;;;;;;;;5049633;28;20449;-56
2023/08/19 06:16:19;;;;;;;5.33;3.80;;;;;;;;;;5050279;28;20469;-57
2023/08/19 06:18:48;;;;;;;4.63;3.40;;;;;;;;;;5049936;28;20511;-58
2023/08/19 06:21:17;;;;;;;6.40;3.77;;;;;;;;;;5048747;28;20445;-56
2023/08/19 06:23:44;;;;;;;5.07;3.80;;;;;;;;;;5048137;28;20461;-58
2023/08/19 06:26:11;;;;;;;9.00;3.70;;;;;;;;;;5049702;28;20465;-55
2023/08/19 06:28:38;;;;;;;4.40;3.97;;;;;;;;;;5050111;28;20603;-56
2023/08/19 06:31:06;;;;;;;7.93;4.77;;;;;;;;;;5046228;28;20519;-56
2023/08/19 06:33:33;;;;;;;5.37;3.60;;;;;;;;;;5048268;28;20469;-56
2023/08/19 06:36:02;;;;;;;4.80;3.50;;;;;;;;;;5050118;28;21549;-57
2023/08/19 06:38:30;;;;;;;4.17;3.57;;;;;;;;;;5047923;28;20457;-57
2023/08/19 06:41:02;;;;;;;6.37;4.10;;;;;;;;;;5050129;28;21014;-58
2023/08/19 06:43:31;;;;;;;4.93;4.00;;;;;;;;;;5050392;28;20457;-57
2023/08/19 06:45:59;;;;;;;10.80;5.57;;;;;;;;;;5054486;28;20434;-56
2023/08/19 06:48:27;;;;;;;8.40;5.17;;;;;;;;;;5051561;28;20433;-57
2023/08/19 06:50:54;;;;;;;6.67;3.93;;;;;;;;;;5054517;28;20862;-57
2023/08/19 06:53:23;;;;;;;4.47;3.67;;;;;;;;;;5054042;28;20461;-56
2023/08/19 06:55:56;;;;;;;6.07;3.50;;;;;;;;;;5054154;28;20437;-56
2023/08/19 06:58:25;;;;;;;7.17;4.00;;;;;;;;;;5054475;28;20433;-57
2023/08/19 07:00:56;;;;;;;6.07;4.80;;;;;;;;;;5054511;28;20425;-57
2023/08/19 07:03:23;;;;;;;5.50;3.87;;;;;;;;;;5054194;28;20993;-57
2023/08/19 07:05:51;;;;;;;8.73;4.70;;;;;;;;;;5054285;28;20436;-57
2023/08/19 07:08:19;;;;;;;6.40;3.80;;;;;;;;;;5053864;28;20433;-56
2023/08/19 07:10:48;;;;;;;4.70;3.57;;;;;;;;;;5053971;28;20441;-57
2023/08/19 07:13:16;;;;;;;7.17;4.37;;;;;;;;;;5053848;28;21049;-58
2023/08/19 07:15:47;;;;;;;11.40;6.93;;;;;;;;;;5053894;28;20511;-58
2023/08/19 07:18:17;;;;;;;5.83;3.67;;;;;;;;;;5053821;28;20477;-58
2023/08/19 07:20:44;;;;;;;6.60;4.03;;;;;;;;;;5053921;28;20479;-57
2023/08/19 07:23:13;;;;;;;5.40;3.80;;;;;;;;;;5053429;28;20457;-57
2023/08/19 07:25:41;;;;;;;4.73;3.10;;;;;;;;;;5053467;28;20429;-57
2023/08/19 07:28:10;;;;;;;5.37;4.47;;;;;;;;;;5054360;28;20515;-56
2023/08/19 07:30:38;;;;;;;9.73;4.37;;;;;;;;;;5053195;28;20439;-58
2023/08/19 07:33:05;;;;;;;5.47;4.03;;;;;;;;;;5051688;28;20550;-57
2023/08/19 07:35:32;;;;;;;5.53;3.20;;;;;;;;;;5051897;28;20430;-56
2023/08/19 07:38:00;;;;;;;4.73;3.50;;;;;;;;;;5048026;28;20543;-58
2023/08/19 07:40:27;;;;;;;7.30;4.53;;;;;;;;;;5049292;28;20935;-57
2023/08/19 07:42:54;;;;;;;5.63;4.70;;;;;;;;;;5049725;28;20800;-57
2023/08/19 07:45:23;;;;;;;6.53;4.43;;;;;;;;;;5047455;28;21167;-56
2023/08/19 07:47:50;;;;;;;5.40;3.90;;;;;;;;;;5050326;28;20465;-57
2023/08/19 07:50:18;;;;;;;7.27;4.10;;;;;;;;;;5050529;28;20433;-58
2023/08/19 07:52:45;;;;;;;4.43;3.50;;;;;;;;;;5049795;28;20485;-58
2023/08/19 07:55:12;;;;;;;4.60;3.33;;;;;;;;;;5048920;28;20469;-57
2023/08/19 07:57:39;;;;;;;5.43;3.57;;;;;;;;;;5050137;28;20505;-57
2023/08/19 08:00:08;;;;;;;8.03;3.87;;;;;;;;;;5050674;28;20833;-57
2023/08/19 08:02:37;;;;;;;6.57;3.57;;;;;;;;;;5049052;28;20552;-58
2023/08/19 08:05:04;;;;;;;4.60;4.10;;;;;;;;;;5048521;28;21026;-57
2023/08/19 08:07:31;;;;;;;5.20;3.80;;;;;;;;;;5048549;28;20510;-58
2023/08/19 08:09:59;;;;;;;6.27;4.00;;;;;;;;;;5048598;28;21174;-58
2023/08/19 08:12:26;;;;;;;4.40;3.40;;;;;;;;;;5048092;28;20492;-57
2023/08/19 08:14:53;;;;;;;6.73;3.93;;;;;;;;;;5045959;28;20527;-57
2023/08/19 08:17:20;;;;;;;7.60;3.90;;;;;;;;;;5049676;28;20509;-56
2023/08/19 08:19:49;;;;;;;4.30;3.47;;;;;;;;;;5049650;28;20842;-58
2023/08/19 08:22:16;;;;;;;4.80;3.90;;;;;;;;;;5047314;28;20495;-57
2023/08/19 08:24:44;;;;;;;5.97;3.43;;;;;;;;;;5049816;28;20473;-57
2023/08/19 08:27:13;;;;;;;5.60;4.40;;;;;;;;;;5050434;28;20437;-58
2023/08/19 08:29:40;;;;;;;5.30;3.70;;;;;;;;;;5049993;28;20519;-58
2023/08/19 08:32:08;;;;;;;4.97;3.70;;;;;;;;;;5048623;28;20437;-58
2023/08/19 08:34:35;;;;;;;5.70;3.70;;;;;;;;;;5093829;22;20498;-54
2023/08/19 08:37:04;;;;;;;5.17;3.53;;;;;;;;;;5088952;28;20552;-55
2023/08/19 08:39:31;;;;;;;6.47;4.17;;;;;;;;;;5089311;28;20501;-55
2023/08/19 08:41:59;;;;;;;5.70;3.97;;;;;;;;;;5089363;28;20489;-55
2023/08/19 08:44:27;;;;;;;5.20;4.00;;;;;;;;;;5089433;28;20471;-55
2023/08/19 08:46:55;;;;;;;5.80;3.97;;;;;;;;;;5089605;28;20534;-55
2023/08/19 08:49:22;;;;;;;4.50;3.80;;;;;;;;;;5089429;28;20816;-55
2023/08/19 08:51:50;;;;;;;6.97;4.40;;;;;;;;;;5085638;28;20433;-55
2023/08/19 08:54:19;;;;;;;5.50;3.53;;;;;;;;;;5069063;28;20514;-53
2023/08/19 08:56:46;;;;;;;4.73;3.70;;;;;;;;;;5069227;28;20460;-55
2023/08/19 08:59:14;;;;;;;5.00;3.67;;;;;;;;;;5069219;28;20506;-55
2023/08/19 09:01:42;;;;;;;8.10;3.90;;;;;;;;;;5068869;28;20526;-55
2023/08/19 09:04:10;;;;;;;4.60;3.57;;;;;;;;;;5068907;28;20509;-54
2023/08/19 09:06:39;;;;;;;4.60;3.90;;;;;;;;;;5068262;28;20592;-55
2023/08/19 09:09:09;;;;;;;6.30;4.23;;;;;;;;;;5087288;28;20532;-55
2023/08/19 09:11:39;;;;;;;8.00;4.37;;;;;;;;;;5089039;28;20538;-55
2023/08/19 09:14:09;;;;;;;6.20;4.60;;;;;;;;;;5087683;28;20491;-55
2023/08/19 09:16:36;;;;;;;4.87;3.90;;;;;;;;;;5077647;28;20437;-55
2023/08/19 09:19:04;;;;;;;4.50;3.47;;;;;;;;;;5056990;28;20469;-54
2023/08/19 09:21:31;;;;;;;5.97;4.03;;;;;;;;;;5057937;28;20483;-55
2023/08/19 09:24:00;;;;;;;5.40;3.77;;;;;;;;;;5055720;28;20937;-55
2023/08/19 09:26:27;;;;;;;5.63;3.87;;;;;;;;;;5054188;28;20468;-55
2023/08/19 09:28:58;;;;;;;5.17;4.10;;;;;;;;;;5047773;28;20972;-54
2023/08/19 09:31:26;;;;;;;5.23;3.87;;;;;;;;;;5047910;28;20860;-55
2023/08/19 09:33:53;;;;;;;6.70;4.43;;;;;;;;;;5047920;28;21004;-55
2023/08/19 09:36:23;;;;;;;5.57;4.37;;;;;;;;;;5050863;28;20541;-55
2023/08/19 09:38:54;;;;;;;5.83;4.27;;;;;;;;;;5084596;28;20475;-55
2023/08/19 09:41:22;;;;;;;7.23;4.47;;;;;;;;;;5088563;28;20428;-54
2023/08/19 09:43:49;;;;;;;5.10;3.33;;;;;;;;;;5088272;28;20508;-53
2023/08/19 09:46:18;;;;;;;5.30;3.63;;;;;;;;;;5088314;28;20439;-54
2023/08/19 09:48:53;;;;;;;6.30;4.00;;;;;;;;;;5050469;28;20479;-54
2023/08/19 09:51:24;;;;;;;6.13;4.57;;;;;;;;;;5047971;28;20429;-54
2023/08/19 09:53:52;;;;;;;4.97;4.07;;;;;;;;;;5047571;28;20868;-53
2023/08/19 09:56:22;;;;;;;5.80;3.43;;;;;;;;;;5048020;28;20461;-54
2023/08/19 09:58:51;;;;;;;8.53;5.50;;;;;;;;;;5048231;28;20516;-53
2023/08/19 10:01:22;;;;;;;7.33;3.73;;;;;;;;;;5060855;28;21003;-54
2023/08/19 10:03:50;;;;;;;5.50;4.10;;;;;;;;;;5067745;28;20470;-55
2023/08/19 10:06:18;;;;;;;4.47;3.70;;;;;;;;;;5067660;28;20468;-53
2023/08/19 10:08:47;;;;;;;8.43;5.60;;;;;;;;;;5082534;28;20431;-54
2023/08/19 10:11:16;;;;;;;7.10;4.00;;;;;;;;;;5087565;28;20589;-53
2023/08/19 10:13:43;;;;;;;7.13;4.10;;;;;;;;;;5087907;28;20516;-53
2023/08/19 10:16:11;;;;;;;5.67;3.83;;;;;;;;;;5088020;28;20475;-54
2023/08/19 10:18:42;;;;;;;5.17;3.50;;;;;;;;;;5087328;28;20506;-54
2023/08/19 10:21:10;;;;;;;6.07;3.63;;;;;;;;;;5087796;28;20467;-54
2023/08/19 10:23:40;;;;;;;4.63;3.70;;;;;;;;;;5087159;28;20562;-54
2023/08/19 10:26:07;;;;;;;7.23;4.07;;;;;;;;;;5086868;28;20472;-54
2023/08/19 10:28:35;;;;;;;5.23;3.70;;;;;;;;;;5086652;28;20484;-54
2023/08/19 10:31:06;;;;;;;5.90;4.50;;;;;;;;;;5086496;28;20551;-55
2023/08/19 10:33:40;;;;;;;5.03;3.67;;;;;;;;;;5085790;28;20473;-54
2023/08/19 10:36:09;;;;;;;5.00;3.57;;;;;;;;;;5084948;28;21258;-55
2023/08/19 10:38:43;;;;;;;6.43;4.93;;;;;;;;;;5061024;28;20563;-54
2023/08/19 10:41:18;;;;;;;5.80;3.90;;;;;;;;;;5067045;28;20498;-54
2023/08/19 10:43:52;;;;;;;7.03;4.10;;;;;;;;;;5060864;28;20540;-54
2023/08/19 10:46:19;;;;;;;6.37;4.10;;;;;;;;;;5056925;28;20445;-54
2023/08/19 10:48:47;;;;;;;4.80;4.20;;;;;;;;;;5059006;28;20479;-54
2023/08/19 10:51:18;;;;;;;7.40;4.47;;;;;;;;;;5050396;28;20437;-54
2023/08/19 10:53:52;;;;;;;5.13;3.93;;;;;;;;;;5050243;28;20472;-54
2023/08/19 10:56:20;;;;;;;5.40;3.43;;;;;;;;;;5050280;28;20901;-54
2023/08/19 10:58:48;;;;;;;6.13;4.87;;;;;;;;;;5054992;28;20464;-54
2023/08/19 11:01:16;;;;;;;10.50;4.90;;;;;;;;;;5069567;28;20468;-54
2023/08/19 11:03:43;;;;;;;5.13;4.20;;;;;;;;;;5070497;28;20564;-54
2023/08/19 11:06:10;;;;;;;6.30;4.30;;;;;;;;;;5070117;28;20441;-53
2023/08/19 11:08:45;;;;;;;5.77;4.67;;;;;;;;;;5062924;28;20432;-53
2023/08/19 11:11:17;;;;;;;5.20;3.57;;;;;;;;;;5054849;28;20564;-53
2023/08/19 11:13:44;;;;;;;8.70;4.37;;;;;;;;;;5054803;28;20542;-54
2023/08/19 11:16:12;;;;;;;8.10;4.20;;;;;;;;;;5063788;28;20528;-55
2023/08/19 11:18:42;;;;;;;8.30;5.30;;;;;;;;;;5066076;28;20571;-54
2023/08/19 11:21:09;;;;;;;7.87;4.77;;;;;;;;;;5066846;28;20700;-55
2023/08/19 11:23:37;;;;;;;6.33;4.77;;;;;;;;;;5065078;28;20488;-55
2023/08/19 11:26:05;;;;;;;6.13;4.40;;;;;;;;;;5064505;28;20494;-54
2023/08/19 11:28:33;;;;;;;7.77;5.27;;;;;;;;;;5067923;28;20468;-55
2023/08/19 11:31:00;;;;;;;6.30;4.90;;;;;;;;;;5070557;28;20460;-55
2023/08/19 11:33:31;;;;;;;8.07;3.67;;;;;;;;;;5067329;28;20553;-55
2023/08/19 11:35:58;;;;;;;6.40;4.20;;;;;;;;;;5066947;28;20519;-54
2023/08/19 11:38:26;;;;;;;9.07;4.63;;;;;;;;;;5063496;28;20971;-55
2023/08/19 11:40:52;;;;;;;6.33;4.67;;;;;;;;;;5068532;28;20562;-55
2023/08/19 11:43:25;;;;;;;5.57;4.20;;;;;;;;;;5063760;28;20468;-55
2023/08/19 11:45:52;;;;;;;7.60;4.43;;;;;;;;;;5070469;28;20447;-54
2023/08/19 11:48:19;;;;;;;5.70;3.53;;;;;;;;;;5072395;28;20537;-54
2023/08/19 11:50:48;;;;;;;6.40;3.97;;;;;;;;;;5072787;28;20437;-55
2023/08/19 11:53:22;;;;;;;5.10;4.03;;;;;;;;;;5072886;28;20484;-54
2023/08/19 11:55:52;;;;;;;5.57;4.13;;;;;;;;;;5072171;28;21014;-55
2023/08/19 11:58:20;;;;;;;8.80;4.50;;;;;;;;;;5072641;28;20472;-55
2023/08/19 12:00:48;;;;;;;4.43;3.77;;;;;;;;;;5073243;28;20523;-53
2023/08/19 12:03:17;;;;;;;5.23;4.10;;;;;;;;;;5072716;28;20562;-55
2023/08/19 12:05:45;;;;;;;6.07;3.80;;;;;;;;;;5073342;28;20527;-54
2023/08/19 12:08:27;;;;;;;4.00;3.30;;;;;;;;;;5073111;28;20516;-55
2023/08/19 12:10:54;;;;;;;6.60;3.93;;;;;;;;;;5073183;28;20494;-53
2023/08/19 12:13:21;;;;;;;6.40;4.77;;;;;;;;;;5072847;28;20493;-55
2023/08/19 12:15:50;;;;;;;7.60;4.83;;;;;;;;;;5072998;28;20637;-55
2023/08/19 12:18:18;;;;;;;5.80;4.37;;;;;;;;;;5072853;28;20565;-53
2023/08/19 12:20:45;;;;;;;5.97;3.70;;;;;;;;;;5072604;28;20818;-54
2023/08/19 12:23:12;;;;;;;8.13;3.90;;;;;;;;;;5072480;28;21039;-55
2023/08/19 12:25:48;;;;;;;5.20;3.70;;;;;;;;;;5072347;28;20463;-54
2023/08/19 12:28:16;;;;;;;4.30;3.57;;;;;;;;;;5072358;28;20436;-55
2023/08/19 12:30:43;;;;;;;5.23;3.50;;;;;;;;;;5072370;28;20888;-54
2023/08/19 12:33:12;;;;;;;7.07;3.83;;;;;;;;;;5071929;28;20479;-55
2023/08/19 12:35:39;;;;;;;4.20;3.73;;;;;;;;;;5072801;28;20468;-55
2023/08/19 12:38:06;;;;;;;3.70;3.30;;;;;;;;;;5072310;28;20893;-55
2023/08/19 12:40:34;;;;;;;4.87;3.60;;;;;;;;;;5071100;28;20464;-55
2023/08/19 12:43:01;;;;;;;8.17;4.37;;;;;;;;;;5072024;28;20991;-54
2023/08/19 12:45:29;;;;;;;5.37;4.43;;;;;;;;;;5072608;28;20440;-55
2023/08/19 12:47:56;;;;;;;7.00;4.33;;;;;;;;;;5072831;28;20436;-55
2023/08/19 12:50:25;;;;;;;6.17;4.40;;;;;;;;;;5072068;28;20509;-53
2023/08/19 12:52:52;;;;;;;4.80;3.90;;;;;;;;;;5072029;28;20460;-54
2023/08/19 12:55:20;;;;;;;5.37;4.17;;;;;;;;;;5061887;28;20507;-54
2023/08/19 12:57:47;;;;;;;5.30;4.50;;;;;;;;;;5066790;28;20998;-55
2023/08/19 13:00:15;;;;;;;5.83;4.40;;;;;;;;;;5070171;28;21001;-54
2023/08/19 13:02:42;;;;;;;4.83;3.93;;;;;;;;;;5065857;28;20469;-55
2023/08/19 13:05:10;;;;;;;8.20;4.20;;;;;;;;;;5065370;28;20513;-53
2023/08/19 13:07:39;;;;;;;5.47;4.00;;;;;;;;;;5059928;28;20464;-53
2023/08/19 13:10:07;;;;;;;8.03;5.00;;;;;;;;;;5056314;28;20477;-55
2023/08/19 13:12:34;;;;;;;6.40;4.33;;;;;;;;;;5050835;28;20473;-53
2023/08/19 13:15:01;;;;;;;6.43;4.50;;;;;;;;;;5053614;28;20875;-55
2023/08/19 13:17:28;;;;;;;6.30;4.50;;;;;;;;;;5060211;28;20873;-54
2023/08/19 13:19:56;;;;;;;7.60;4.77;;;;;;;;;;5050993;28;20558;-55
2023/08/19 13:22:24;;;;;;;7.73;5.00;;;;;;;;;;5051277;28;20469;-55
2023/08/19 13:24:52;;;;;;;6.60;4.40;;;;;;;;;;5050782;28;20542;-54
2023/08/19 13:27:20;;;;;;;7.03;5.10;;;;;;;;;;5051598;28;20445;-55
2023/08/19 13:29:47;;;;;;;5.00;4.50;;;;;;;;;;5050318;28;20461;-55
2023/08/19 13:32:15;;;;;;;6.93;4.60;;;;;;;;;;5050531;28;20441;-54
2023/08/19 13:34:43;;;;;;;7.60;4.00;;;;;;;;;;5051357;28;20473;-55
2023/08/19 13:37:11;;;;;;;6.57;5.43;;;;;;;;;;5051159;28;20896;-53
2023/08/19 13:39:39;;;;;;;6.23;4.93;;;;;;;;;;5051245;28;21086;-55
2023/08/19 13:42:08;;;;;;;8.50;5.80;;;;;;;;;;5051111;28;20517;-54
2023/08/19 13:44:35;;;;;;;5.33;4.20;;;;;;;;;;5051075;28;20457;-55
2023/08/19 13:47:02;;;;;;;5.13;4.70;;;;;;;;;;5065363;28;20510;-54
2023/08/19 13:49:29;;;;;;;5.57;4.60;;;;;;;;;;5070085;28;20437;-54
2023/08/19 13:51:57;;;;;;;6.43;4.63;;;;;;;;;;5065032;28;20959;-55
2023/08/19 13:54:24;;;;;;;8.40;4.33;;;;;;;;;;5057606;28;20491;-54
2023/08/19 13:56:52;;;;;;;5.23;4.40;;;;;;;;;;5055992;28;20437;-55
2023/08/19 13:59:21;;;;;;;7.40;4.53;;;;;;;;;;5055876;28;21794;-53
2023/08/19 14:01:49;;;;;;;7.87;4.33;;;;;;;;;;5046846;28;20441;-54
2023/08/19 14:04:16;;;;;;;5.10;4.60;;;;;;;;;;5046813;28;20546;-55
2023/08/19 14:06:43;;;;;;;6.33;3.93;;;;;;;;;;5046748;28;20465;-54
2023/08/19 14:09:10;;;;;;;4.60;4.00;;;;;;;;;;5047097;28;20458;-55
2023/08/19 14:11:37;;;;;;;6.60;4.10;;;;;;;;;;5046864;28;21005;-55
2023/08/19 14:14:05;;;;;;;6.00;4.60;;;;;;;;;;5046583;28;20551;-55
2023/08/19 14:16:33;;;;;;;5.67;3.87;;;;;;;;;;5047296;28;20476;-55
2023/08/19 14:19:02;;;;;;;4.70;4.23;;;;;;;;;;5046577;28;20508;-55
2023/08/19 14:21:29;;;;;;;7.53;4.23;;;;;;;;;;5046800;28;20437;-55
2023/08/19 14:23:57;;;;;;;6.63;3.83;;;;;;;;;;5056747;28;20543;-55
2023/08/19 14:26:28;;;;;;;7.73;4.27;;;;;;;;;;5058197;28;20523;-55
2023/08/19 14:28:55;;;;;;;6.60;4.17;;;;;;;;;;5060577;28;20477;-55
2023/08/19 14:31:23;;;;;;;5.17;4.30;;;;;;;;;;5055659;28;20453;-55
2023/08/19 14:33:52;;;;;;;7.43;4.73;;;;;;;;;;5069717;22;20498;-56
2023/08/19 14:36:20;;;;;;;6.00;4.03;;;;;;;;;;5058035;28;20465;-56
2023/08/19 14:38:47;;;;;;;4.50;3.90;;;;;;;;;;5049823;28;21013;-56
2023/08/19 14:41:14;;;;;;;7.60;4.60;;;;;;;;;;5047732;28;20807;-56
2023/08/19 14:43:42;;;;;;;4.90;3.90;;;;;;;;;;5062461;28;20496;-55
2023/08/19 14:46:09;;;;;;;4.70;3.97;;;;;;;;;;5068237;28;20787;-55
2023/08/19 14:48:38;;;;;;;5.20;3.17;;;;;;;;;;5068082;28;20441;-56